createdAt,value
2023-12-30T00:04:55.290Z,9.50
2023-12-30T00:09:58.128Z,9.60
2023-12-30T00:15:00.958Z,9.50
2023-12-30T00:20:04.068Z,9.40
2023-12-30T00:25:08.805Z,9.40
2023-12-30T00:30:16.791Z,9.40
2023-12-30T00:35:19.844Z,9.50
2023-12-30T00:40:26.836Z,9.40
2023-12-30T00:45:30.663Z,9.40
2023-12-30T00:50:33.522Z,9.40
2023-12-30T00:55:36.320Z,9.40
2023-12-30T01:00:39.159Z,9.30
2023-12-30T01:05:42.173Z,9.30
2023-12-30T01:10:45.035Z,9.30
2023-12-30T01:15:48.109Z,9.50
2023-12-30T01:20:50.927Z,9.40
2023-12-30T01:25:53.842Z,9.70
2023-12-30T01:30:56.935Z,9.80
2023-12-30T01:35:59.821Z,9.90
2023-12-30T01:41:02.581Z,10.00
2023-12-30T01:46:09.054Z,9.90
2023-12-30T01:51:24.324Z,9.80
2023-12-30T01:56:29.403Z,9.70
2023-12-30T02:01:32.773Z,9.70
2023-12-30T02:06:35.616Z,9.70
2023-12-30T02:11:39.382Z,9.70
2023-12-30T02:16:42.304Z,9.70
2023-12-30T02:21:45.272Z,9.70
2023-12-30T02:26:48.567Z,9.50
2023-12-30T02:31:51.881Z,9.40
2023-12-30T02:36:54.776Z,9.40
2023-12-30T02:41:57.591Z,9.40
2023-12-30T02:47:00.263Z,9.30
2023-12-30T02:52:03.178Z,9.30
2023-12-30T02:57:07.350Z,9.40
2023-12-30T03:02:10.298Z,9.20
2023-12-30T03:07:13.098Z,9.10
2023-12-30T03:12:16.737Z,9.20
2023-12-30T03:17:19.868Z,9.20
2023-12-30T03:22:22.655Z,9.10
2023-12-30T03:27:25.423Z,9.20
2023-12-30T03:32:30.069Z,9.10
2023-12-30T03:37:32.922Z,9.20
2023-12-30T03:42:35.733Z,9.30
2023-12-30T03:47:38.576Z,9.30
2023-12-30T03:52:41.284Z,9.30
2023-12-30T03:57:44.242Z,9.20
2023-12-30T04:02:48.733Z,9.30
2023-12-30T04:07:52.032Z,9.30
2023-12-30T04:12:54.843Z,9.20
2023-12-30T04:17:57.938Z,9.00
2023-12-30T04:23:01.314Z,9.00
2023-12-30T04:28:04.772Z,9.10
2023-12-30T04:33:08.198Z,9.00
2023-12-30T04:38:12.129Z,8.90
2023-12-30T04:43:15.110Z,8.80
2023-12-30T04:48:18.693Z,8.80
2023-12-30T04:53:21.686Z,8.50
2023-12-30T04:58:24.883Z,8.50
2023-12-30T05:03:27.700Z,8.40
2023-12-30T05:08:31.242Z,8.30
2023-12-30T05:13:34.097Z,8.30
2023-12-30T05:18:37.170Z,8.40
2023-12-30T05:23:40.078Z,8.40
2023-12-30T05:28:43.105Z,8.50
2023-12-30T05:33:45.948Z,8.60
2023-12-30T05:38:49.242Z,8.70
2023-12-30T05:43:52.695Z,8.80
2023-12-30T05:48:56.570Z,8.70
2023-12-30T05:53:59.379Z,8.60
2023-12-30T05:59:02.236Z,8.70
2023-12-30T06:04:05.280Z,8.70
2023-12-30T06:09:09.019Z,8.70
2023-12-30T06:14:11.802Z,8.50
2023-12-30T06:19:17.974Z,8.40
2023-12-30T06:24:21.100Z,8.40
2023-12-30T06:29:24.736Z,8.30
2023-12-30T06:34:27.500Z,8.10
2023-12-30T06:39:30.423Z,8.20
2023-12-30T06:44:33.178Z,8.20
2023-12-30T06:49:40.762Z,8.10
2023-12-30T06:54:43.620Z,8.20
2023-12-30T06:59:46.636Z,8.20
2023-12-30T07:04:49.896Z,8.10
2023-12-30T07:09:52.980Z,8.20
2023-12-30T07:14:56.243Z,8.30
2023-12-30T07:20:00.548Z,8.40
2023-12-30T07:25:03.711Z,8.40
2023-12-30T07:30:07.932Z,8.70
2023-12-30T07:35:10.763Z,8.80
2023-12-30T07:40:14.726Z,9.20
2023-12-30T07:45:17.817Z,9.30
2023-12-30T07:50:20.830Z,9.30
2023-12-30T07:55:25.901Z,9.30
2023-12-30T08:00:28.828Z,9.50
2023-12-30T08:05:31.905Z,9.60
2023-12-30T08:10:35.017Z,9.70
2023-12-30T08:15:37.887Z,9.90
2023-12-30T08:20:40.718Z,9.90
2023-12-30T08:25:43.761Z,10.00
2023-12-30T08:30:48.390Z,10.30
2023-12-30T08:35:51.359Z,10.60
2023-12-30T08:40:54.215Z,11.50
2023-12-30T08:45:57.483Z,15.10
2023-12-30T08:51:00.804Z,15.20
2023-12-30T08:56:04.265Z,15.80
2023-12-30T09:01:07.753Z,16.30
2023-12-30T09:06:10.751Z,17.40
2023-12-30T09:11:24.246Z,18.40
2023-12-30T09:16:27.582Z,16.70
2023-12-30T09:21:31.191Z,16.60
2023-12-30T09:26:34.114Z,18.60
2023-12-30T09:31:36.985Z,19.90
2023-12-30T09:36:40.169Z,19.50
2023-12-30T09:41:43.032Z,19.10
2023-12-30T09:46:48.919Z,18.20
2023-12-30T09:51:51.921Z,17.80
2023-12-30T09:56:54.874Z,17.50
2023-12-30T10:02:01.728Z,20.00
2023-12-30T10:07:06.280Z,18.50
2023-12-30T10:12:11.502Z,18.20
2023-12-30T10:17:15.155Z,18.10
2023-12-30T10:22:18.392Z,18.10
2023-12-30T10:27:22.574Z,18.60
2023-12-30T10:32:25.615Z,16.60
2023-12-30T10:37:30.625Z,17.20
2023-12-30T10:42:33.493Z,18.00
2023-12-30T10:47:44.151Z,19.30
2023-12-30T10:52:53.698Z,15.40
2023-12-30T10:58:15.135Z,14.00
2023-12-30T11:03:18.055Z,13.10
2023-12-30T11:08:21.776Z,12.10
2023-12-30T11:13:25.514Z,11.90
2023-12-30T11:18:51.214Z,11.90
2023-12-30T11:24:04.856Z,11.70
2023-12-30T11:29:21.371Z,11.70
2023-12-30T11:34:26.153Z,11.60
2023-12-30T11:39:31.991Z,11.50
2023-12-30T11:44:35.488Z,11.60
2023-12-30T11:49:38.873Z,11.80
2023-12-30T11:54:42.149Z,11.60
2023-12-30T11:59:45.691Z,11.50
2023-12-30T12:04:48.728Z,11.20
2023-12-30T12:09:51.749Z,11.20
2023-12-30T12:14:55.160Z,11.20
2023-12-30T12:19:59.122Z,11.00
2023-12-30T12:25:05.749Z,10.00
2023-12-30T12:30:11.018Z,9.30
2023-12-30T12:35:14.134Z,9.10
2023-12-30T12:40:17.626Z,8.60
2023-12-30T12:45:21.042Z,8.20
2023-12-30T12:50:23.780Z,8.10
2023-12-30T12:55:26.747Z,7.90
2023-12-30T13:00:29.634Z,7.90
2023-12-30T13:05:33.050Z,7.80
2023-12-30T13:10:47.247Z,7.70
2023-12-30T13:15:50.636Z,7.70
2023-12-30T13:20:53.826Z,7.70
2023-12-30T13:25:56.869Z,7.70
2023-12-30T13:30:59.856Z,7.70
2023-12-30T13:36:09.057Z,7.70
2023-12-30T13:41:12.259Z,7.70
2023-12-30T13:46:38.177Z,7.60
2023-12-30T13:51:56.550Z,7.60
2023-12-30T13:57:13.438Z,7.60
2023-12-30T14:02:19.538Z,7.40
2023-12-30T14:07:30.176Z,8.80
2023-12-30T14:12:33.511Z,7.60
2023-12-30T14:17:37.323Z,7.20
2023-12-30T14:22:40.753Z,7.00
2023-12-30T14:27:45.227Z,6.80
2023-12-30T14:32:48.145Z,6.70
2023-12-30T14:37:51.341Z,6.50
2023-12-30T14:42:54.197Z,6.40
2023-12-30T14:47:58.377Z,6.30
2023-12-30T14:53:01.669Z,6.30
2023-12-30T14:58:06.244Z,6.30
2023-12-30T15:03:09.378Z,6.30
2023-12-30T15:08:13.129Z,6.30
2023-12-30T15:13:16.100Z,6.30
2023-12-30T15:18:21.334Z,6.30
2023-12-30T15:23:24.282Z,6.40
2023-12-30T15:28:27.154Z,6.30
2023-12-30T15:33:31.769Z,6.40
2023-12-30T15:38:34.619Z,6.30
2023-12-30T15:43:37.828Z,6.20
2023-12-30T15:48:40.686Z,6.30
2023-12-30T15:53:43.643Z,6.30
2023-12-30T15:58:46.638Z,6.40
2023-12-30T16:03:49.782Z,6.40
2023-12-30T16:08:53.777Z,6.40
2023-12-30T16:13:57.873Z,6.40
2023-12-30T16:19:01.365Z,6.40
2023-12-30T16:24:05.199Z,6.40
2023-12-30T16:29:08.069Z,6.40
2023-12-30T16:34:12.160Z,6.40
2023-12-30T16:39:15.213Z,6.40
2023-12-30T16:44:18.099Z,6.40
2023-12-30T16:49:21.055Z,6.50
2023-12-30T16:54:23.952Z,6.50
2023-12-30T16:59:27.123Z,6.50
2023-12-30T17:04:29.983Z,6.60
2023-12-30T17:09:32.919Z,6.70
2023-12-30T17:14:35.861Z,6.70
2023-12-30T17:19:39.150Z,6.60
2023-12-30T17:24:42.158Z,6.60
2023-12-30T17:29:44.922Z,6.60
2023-12-30T17:34:48.071Z,6.70
2023-12-30T17:39:51.070Z,6.70
2023-12-30T17:44:54.216Z,6.60
2023-12-30T17:49:57.704Z,6.70
2023-12-30T17:55:01.723Z,6.60
2023-12-30T18:00:05.188Z,6.60
2023-12-30T18:05:09.436Z,6.70
2023-12-30T18:10:12.369Z,6.60
2023-12-30T18:15:16.155Z,6.70
2023-12-30T18:20:19.478Z,6.70
2023-12-30T18:25:22.467Z,6.50
2023-12-30T18:30:25.342Z,6.50
2023-12-30T18:35:28.281Z,6.50
2023-12-30T18:40:31.255Z,6.60
2023-12-30T18:45:34.625Z,6.40
2023-12-30T18:50:37.425Z,6.50
2023-12-30T18:55:41.093Z,6.40
2023-12-30T19:00:43.985Z,6.40
2023-12-30T19:05:47.016Z,6.40
2023-12-30T19:10:50.324Z,6.50
2023-12-30T19:15:53.383Z,6.60
2023-12-30T19:20:57.497Z,6.50
2023-12-30T19:26:00.426Z,6.50
2023-12-30T19:31:03.419Z,6.40
2023-12-30T19:36:06.477Z,6.40
2023-12-30T19:41:09.891Z,6.30
2023-12-30T19:46:13.077Z,6.20
2023-12-30T19:51:15.985Z,6.20
2023-12-30T19:56:24.635Z,6.20
2023-12-30T20:01:27.580Z,6.10
2023-12-30T20:06:30.549Z,6.00
2023-12-30T20:11:33.763Z,5.90
2023-12-30T20:16:36.657Z,5.80
2023-12-30T20:21:39.888Z,5.80
2023-12-30T20:26:44.998Z,5.70
2023-12-30T20:31:47.822Z,5.70
2023-12-30T20:36:51.053Z,5.60
2023-12-30T20:41:54.147Z,5.40
2023-12-30T20:46:57.076Z,5.30
2023-12-30T20:52:00.399Z,5.00
2023-12-30T20:57:07.206Z,5.10
2023-12-30T21:02:12.829Z,5.10
2023-12-30T21:07:18.996Z,5.20
2023-12-30T21:12:27.821Z,5.20
2023-12-30T21:17:33.779Z,5.30
2023-12-30T21:22:39.352Z,5.40
2023-12-30T21:27:44.408Z,5.40
2023-12-30T21:32:53.381Z,5.50
2023-12-30T21:37:57.045Z,5.60
2023-12-30T21:43:02.548Z,5.60
2023-12-30T21:48:09.803Z,5.60
2023-12-30T21:53:18.090Z,5.60
2023-12-30T21:58:23.612Z,5.60
2023-12-30T22:03:29.456Z,5.50
2023-12-30T22:08:36.342Z,5.40
2023-12-30T22:13:41.807Z,5.40
2023-12-30T22:18:47.410Z,5.50
2023-12-30T22:23:52.884Z,5.60
2023-12-30T22:28:57.948Z,5.50
2023-12-30T22:34:02.701Z,5.30
2023-12-30T22:39:07.993Z,5.40
2023-12-30T22:44:13.100Z,5.50
2023-12-30T22:49:16.661Z,5.60
2023-12-30T22:54:19.506Z,5.70
2023-12-30T22:59:22.286Z,5.60
2023-12-30T23:04:25.084Z,5.60
2023-12-30T23:09:27.916Z,5.90
2023-12-30T23:14:30.793Z,5.80
2023-12-30T23:19:33.633Z,5.80
2023-12-30T23:24:36.495Z,5.90
2023-12-30T23:29:39.512Z,5.90
2023-12-30T23:34:49.000Z,6.00
2023-12-30T23:39:54.124Z,6.00
2023-12-30T23:44:56.843Z,6.00
2023-12-30T23:50:00.015Z,6.00
2023-12-30T23:55:04.632Z,5.90
